Terminal Aerodrome Forecast
Issued by NWS

Home | Current Version | Previous Version | Text Only | Print | Product List | Glossary On
Versions: 1 2 3 4 5 6 7 8 9 10 11 12 13 14
000
FTAK31 PAJN 270536
TAFAKT
TAF
PAKT 270536Z 2706/2806 13009KT P6SM -SHRA SCT006 OVC010
      TEMPO 2706/2710 3SM -SHRA BR OVC007
     FM271000 VRB05KT 5SM -SHRA BR FEW002 OVC007
     FM271700 13005KT P6SM VCSH SCT010 OVC020
     FM272100 13009KT P6SM VCSH SCT025 OVC035
      AMD LTD TO CLD VIS AND WIND 2706/2715=

USA.gov is the U.S. government's official web portal to all federal, state and local government web resources and services.